Time;durP1;ratioP1;P1;durP2;ratioP2;P2;SDS_P1;SDS_P2;PMS_P1;PMS_P2;Temp;Humidity;BMP_temperature;BMP_pressure;BME280_temperature;BME280_humidity;BME280_pressure;Samples;Min_cycle;Max_cycle;Signal;HPM_P1;HPM_P2
2023/08/01 00:01:21;;;;;;;13.17;6.70;;;;;;;18.82;92.07;99564.75;4898269;29;20505;-78
2023/08/01 00:03:50;;;;;;;7.50;5.30;;;;;;;18.70;93.22;99556.88;4897763;29;20458;-77
2023/08/01 00:06:20;;;;;;;9.57;5.70;;;;;;;18.69;93.47;99558.00;4915470;29;20504;-78
2023/08/01 00:08:49;;;;;;;9.20;5.00;;;;;;;18.63;94.67;99554.50;4896558;29;20982;-77
2023/08/01 00:11:18;;;;;;;6.53;5.50;;;;;;;18.61;95.59;99551.22;4905818;29;20452;-78
2023/08/01 00:13:48;;;;;;;8.50;5.40;;;;;;;18.61;95.90;99543.00;4911599;29;20461;-78
2023/08/01 00:16:17;;;;;;;6.30;5.60;;;;;;;18.52;97.45;99543.88;4916395;29;20467;-78
2023/08/01 00:18:48;;;;;;;7.30;6.30;;;;;;;18.47;98.65;99531.03;4900561;29;20409;-79
2023/08/01 00:21:17;;;;;;;8.17;7.20;;;;;;;18.43;99.68;99531.91;4905940;29;20434;-78
2023/08/01 00:23:46;;;;;;;6.00;5.17;;;;;;;18.30;100.00;99525.13;4901398;29;20437;-79
2023/08/01 00:26:16;;;;;;;7.27;5.43;;;;;;;18.22;100.00;99529.31;4907733;29;20501;-77
2023/08/01 00:28:45;;;;;;;8.67;6.77;;;;;;;18.11;100.00;99526.94;4897856;29;20405;-78
2023/08/01 00:31:14;;;;;;;7.20;5.80;;;;;;;18.01;100.00;99525.06;4904663;29;20816;-78
2023/08/01 00:33:43;;;;;;;8.57;5.30;;;;;;;17.96;100.00;99524.31;4900862;29;20483;-78
2023/08/01 00:36:14;;;;;;;6.00;5.40;;;;;;;17.84;100.00;99515.63;4897663;29;20441;-77
2023/08/01 00:38:44;;;;;;;7.00;5.60;;;;;;;17.74;100.00;99506.38;4899433;29;20420;-78
2023/08/01 00:41:13;;;;;;;7.63;5.30;;;;;;;17.66;100.00;99506.16;4901543;29;20424;-78
2023/08/01 00:43:43;;;;;;;11.63;6.70;;;;;;;17.56;100.00;99492.50;4901794;29;20506;-78
2023/08/01 00:46:12;;;;;;;5.50;4.53;;;;;;;17.59;100.00;99486.50;4902047;29;20444;-78
2023/08/01 00:48:42;;;;;;;7.00;5.10;;;;;;;17.56;100.00;99476.09;4901877;29;20409;-80
2023/08/01 00:51:13;;;;;;;9.47;5.70;;;;;;;17.57;100.00;99484.00;4910422;29;20970;-77
2023/08/01 00:53:42;;;;;;;6.27;4.17;;;;;;;17.51;100.00;99485.16;4898103;29;20508;-78
2023/08/01 00:56:11;;;;;;;6.33;4.40;;;;;;;17.43;100.00;99480.25;4901981;29;20511;-76
2023/08/01 00:58:42;;;;;;;6.33;4.53;;;;;;;17.38;100.00;99483.81;4899570;29;20476;-78
2023/08/01 01:01:11;;;;;;;5.60;4.00;;;;;;;17.36;100.00;99471.53;4909890;29;20433;-77
2023/08/01 01:03:41;;;;;;;7.30;5.13;;;;;;;17.26;100.00;99474.31;4918108;29;20476;-77
2023/08/01 01:06:18;;;;;;;4.33;3.80;;;;;;;17.42;100.00;99475.91;4914502;29;20471;-77
2023/08/01 01:08:48;;;;;;;6.33;4.87;;;;;;;17.37;100.00;99468.53;4913081;29;20474;-77
2023/08/01 01:11:17;;;;;;;5.90;4.27;;;;;;;17.39;100.00;99470.97;4909487;29;20779;-77
2023/08/01 01:13:47;;;;;;;5.40;4.47;;;;;;;17.30;100.00;99464.47;4909991;29;20523;-78
2023/08/01 01:16:16;;;;;;;11.67;4.17;;;;;;;17.32;100.00;99465.00;4909457;29;20420;-77
2023/08/01 01:18:45;;;;;;;6.97;4.50;;;;;;;17.28;100.00;99463.94;4926289;29;20432;-82
2023/08/01 01:24:46;;;;;;;4.33;3.80;;;;;;;17.38;100.00;99431.06;4886261;29;20445;-77
2023/08/01 01:27:17;;;;;;;5.57;4.30;;;;;;;17.31;100.00;99409.50;4906193;29;20454;-78
2023/08/01 01:29:48;;;;;;;5.70;4.50;;;;;;;17.25;100.00;99396.97;4901420;29;20438;-78
2023/08/01 01:32:18;;;;;;;4.30;3.70;;;;;;;17.27;100.00;99400.25;4900697;29;20889;-78
2023/08/01 01:34:47;;;;;;;6.67;4.20;;;;;;;17.19;100.00;99395.34;4901704;29;20413;-79
2023/08/01 01:37:18;;;;;;;6.10;5.10;;;;;;;17.24;100.00;99383.56;4901065;29;20421;-77
2023/08/01 01:39:47;;;;;;;5.17;4.67;;;;;;;17.24;100.00;99389.03;4908149;29;20949;-79
2023/08/01 01:42:19;;;;;;;5.50;4.70;;;;;;;17.30;100.00;99407.03;4900386;29;20792;-77
2023/08/01 01:44:48;;;;;;;4.93;4.40;;;;;;;17.32;100.00;99388.47;4904269;29;20794;-77
2023/08/01 01:47:17;;;;;;;5.83;4.33;;;;;;;17.37;100.00;99385.69;4899541;29;20446;-78
2023/08/01 01:49:46;;;;;;;8.47;5.53;;;;;;;17.33;100.00;99398.31;4905980;29;20409;-76
2023/08/01 01:52:17;;;;;;;5.50;4.83;;;;;;;17.26;100.00;99395.88;4907563;29;20449;-77
2023/08/01 01:54:46;;;;;;;7.83;5.47;;;;;;;17.26;100.00;99393.13;4907815;29;20437;-77
2023/08/01 01:57:15;;;;;;;6.07;5.20;;;;;;;17.22;100.00;99393.97;4915084;29;20412;-81
2023/08/01 01:59:44;;;;;;;7.97;5.30;;;;;;;17.24;100.00;99383.56;4921912;29;20434;-77
2023/08/01 02:02:14;;;;;;;6.27;5.67;;;;;;;17.25;100.00;99377.00;4920712;29;20418;-80
2023/08/01 02:04:44;;;;;;;6.63;5.50;;;;;;;17.22;100.00;99362.00;4925001;29;20424;-81
2023/08/01 02:07:14;;;;;;;5.73;5.10;;;;;;;17.22;100.00;99350.25;4921173;29;20517;-81
2023/08/01 02:09:44;;;;;;;8.53;6.03;;;;;;;17.24;100.00;99345.28;4922837;29;20419;-81
2023/08/01 02:12:14;;;;;;;9.73;5.80;;;;;;;17.21;100.00;99333.03;4916601;29;20462;-82
2023/08/01 02:14:43;;;;;;;6.63;5.73;;;;;;;17.23;100.00;99330.00;4928727;29;20465;-82
2023/08/01 02:17:12;;;;;;;5.60;5.10;;;;;;;17.25;100.00;99328.63;4923982;29;20446;-83
2023/08/01 02:19:42;;;;;;;9.43;5.47;;;;;;;17.35;100.00;99335.94;4921694;29;20389;-82
2023/08/01 02:22:10;;;;;;;8.47;5.33;;;;;;;17.30;100.00;99330.50;4923795;29;20521;-78
2023/08/01 02:24:39;;;;;;;7.63;5.23;;;;;;;17.29;100.00;99320.66;4921161;29;20441;-82
2023/08/01 02:27:10;;;;;;;8.00;5.17;;;;;;;17.29;100.00;99318.75;4912576;29;20464;-77
2023/08/01 02:29:39;;;;;;;6.17;4.80;;;;;;;17.23;100.00;99317.13;4918687;29;20482;-78
2023/08/01 02:32:08;;;;;;;7.80;5.10;;;;;;;17.24;100.00;99318.78;4914874;29;20465;-81
2023/08/01 02:34:38;;;;;;;7.67;5.07;;;;;;;17.24;100.00;99321.50;4911785;29;20424;-77
2023/08/01 02:37:07;;;;;;;6.80;4.80;;;;;;;17.34;100.00;99315.16;4922496;29;20382;-81
2023/08/01 02:39:36;;;;;;;6.13;5.43;;;;;;;17.38;100.00;99316.22;4928086;29;20435;-80
2023/08/01 02:42:05;;;;;;;5.47;4.83;;;;;;;17.33;100.00;99310.81;4924854;29;20411;-80
2023/08/01 02:44:36;;;;;;;5.60;5.10;;;;;;;17.31;100.00;99302.06;4929863;29;20452;-81
2023/08/01 02:47:06;;;;;;;8.77;5.47;;;;;;;17.28;100.00;99295.22;4916836;29;20538;-80
2023/08/01 02:49:35;;;;;;;7.40;5.80;;;;;;;17.33;100.00;99297.94;4919624;29;20426;-76
2023/08/01 02:52:04;;;;;;;6.90;5.37;;;;;;;17.44;100.00;99304.16;4910115;29;20490;-78
2023/08/01 02:54:33;;;;;;;5.00;4.23;;;;;;;17.37;100.00;99298.19;4898581;29;20593;-79
2023/08/01 02:57:02;;;;;;;7.07;5.40;;;;;;;17.33;100.00;99299.88;4905041;29;20485;-77
2023/08/01 02:59:32;;;;;;;6.60;5.50;;;;;;;17.29;100.00;99290.59;4898925;29;20773;-77
2023/08/01 03:02:04;;;;;;;5.83;5.23;;;;;;;17.24;100.00;99287.88;4909489;29;20438;-77
2023/08/01 03:04:33;;;;;;;8.73;5.70;;;;;;;17.21;100.00;99288.47;4912537;29;20524;-77
2023/08/01 03:07:14;;;;;;;6.97;6.20;;;;;;;17.28;100.00;99278.03;4899470;29;20546;-80
2023/08/01 03:09:43;;;;;;;7.10;6.03;;;;;;;17.28;100.00;99281.56;4931406;29;20427;-77
2023/08/01 03:12:12;;;;;;;11.53;6.43;;;;;;;17.29;100.00;99276.91;4921598;29;20512;-76
2023/08/01 03:14:43;;;;;;;8.50;4.83;;;;;;;17.28;100.00;99275.31;4900121;29;20443;-78
2023/08/01 03:17:14;;;;;;;6.13;5.53;;;;;;;17.21;100.00;99272.88;4897858;29;20496;-78
2023/08/01 03:19:43;;;;;;;6.87;5.17;;;;;;;17.27;100.00;99254.53;4892761;29;20417;-78
2023/08/01 03:22:12;;;;;;;8.30;5.60;;;;;;;17.34;100.00;99255.81;4890522;29;20467;-78
2023/08/01 03:24:42;;;;;;;7.97;6.20;;;;;;;17.27;100.00;99255.34;4909506;29;20461;-78
2023/08/01 03:27:11;;;;;;;6.03;5.43;;;;;;;17.19;100.00;99250.47;4899888;29;20813;-77
2023/08/01 03:29:40;;;;;;;8.07;5.23;;;;;;;17.17;100.00;99249.97;4905192;29;20443;-77
2023/08/01 03:32:09;;;;;;;5.90;5.30;;;;;;;17.20;100.00;99249.38;4906789;29;20420;-77
2023/08/01 03:34:41;;;;;;;6.93;6.27;;;;;;;17.25;100.00;99240.31;4896241;29;20809;-78
2023/08/01 03:37:10;;;;;;;8.03;4.40;;;;;;;17.34;100.00;99241.34;4897891;29;20405;-78
2023/08/01 03:39:40;;;;;;;8.37;5.43;;;;;;;17.31;100.00;99240.00;4897096;29;20448;-78
2023/08/01 03:42:09;;;;;;;5.70;5.03;;;;;;;17.16;100.00;99234.66;4893795;29;20938;-78
2023/08/01 03:44:38;;;;;;;6.17;5.53;;;;;;;17.18;100.00;99239.84;4894212;29;20516;-78
2023/08/01 03:47:07;;;;;;;5.43;4.93;;;;;;;17.19;100.00;99238.72;4905000;29;20516;-82
2023/08/01 03:49:38;;;;;;;6.00;4.70;;;;;;;17.16;100.00;99231.94;4921453;29;20426;-80
2023/08/01 03:52:08;;;;;;;9.70;6.57;;;;;;;17.13;100.00;99228.97;4925535;29;20426;-79
2023/08/01 03:54:37;;;;;;;7.23;5.70;;;;;;;17.17;100.00;99232.75;4929215;29;20457;-79
2023/08/01 03:57:06;;;;;;;5.37;4.43;;;;;;;17.23;100.00;99232.41;4917761;29;20467;-79
2023/08/01 03:59:35;;;;;;;6.73;5.50;;;;;;;17.36;100.00;99225.47;4915481;29;20420;-78
2023/08/01 04:02:06;;;;;;;10.07;5.97;;;;;;;17.38;100.00;99228.72;4917983;29;20411;-78
2023/08/01 04:04:34;;;;;;;7.70;5.53;;;;;;;17.44;100.00;99224.84;4899263;29;20467;-78
2023/08/01 04:07:05;;;;;;;7.83;5.37;;;;;;;17.55;100.00;99229.13;4902942;29;20836;-79
2023/08/01 04:09:34;;;;;;;6.10;4.80;;;;;;;17.48;100.00;99223.16;4901859;29;20465;-77
2023/08/01 04:12:04;;;;;;;6.47;4.90;;;;;;;17.66;100.00;99219.75;4913069;29;20904;-77
2023/08/01 04:14:33;;;;;;;6.50;4.70;;;;;;;17.65;100.00;99218.13;4903112;29;20493;-77
2023/08/01 04:17:02;;;;;;;5.40;4.90;;;;;;;17.86;100.00;99218.75;4902030;29;20458;-77
2023/08/01 04:19:31;;;;;;;9.63;4.73;;;;;;;17.92;100.00;99224.94;4886270;29;20449;-77
2023/08/01 04:22:00;;;;;;;7.70;4.17;;;;;;;17.85;100.00;99219.03;4906319;29;20453;-77
2023/08/01 04:24:30;;;;;;;5.27;4.50;;;;;;;17.85;100.00;99221.75;4908377;29;20433;-78
2023/08/01 04:26:59;;;;;;;5.67;4.93;;;;;;;17.89;100.00;99222.81;4901564;29;20452;-77
2023/08/01 04:29:29;;;;;;;6.97;4.43;;;;;;;17.91;100.00;99221.38;4909765;29;20437;-78
2023/08/01 04:31:57;;;;;;;6.00;4.90;;;;;;;17.83;100.00;99222.03;4901997;29;20510;-77
2023/08/01 04:34:26;;;;;;;6.43;4.37;;;;;;;17.90;100.00;99218.97;4900831;29;20446;-77
2023/08/01 04:36:58;;;;;;;4.20;3.27;;;;;;;17.86;100.00;99217.91;4907467;29;20491;-78
2023/08/01 04:39:29;;;;;;;5.00;4.43;;;;;;;17.94;100.00;99211.81;4902625;29;20837;-77
2023/08/01 04:41:58;;;;;;;4.50;4.00;;;;;;;17.95;100.00;99210.69;4908163;29;20416;-79
2023/08/01 04:44:27;;;;;;;7.20;4.17;;;;;;;18.03;100.00;99215.53;4899531;29;20989;-79
2023/08/01 04:46:56;;;;;;;6.80;4.30;;;;;;;17.92;100.00;99211.25;4901354;29;20441;-77
2023/08/01 04:49:25;;;;;;;4.40;3.70;;;;;;;18.01;100.00;99209.53;4907635;29;20438;-77
2023/08/01 04:51:55;;;;;;;6.37;3.80;;;;;;;17.90;100.00;99200.63;4902606;29;21025;-78
2023/08/01 04:54:24;;;;;;;5.57;4.13;;;;;;;17.86;100.00;99193.28;4906821;29;20437;-77
2023/08/01 04:56:54;;;;;;;6.20;3.80;;;;;;;18.00;100.00;99186.84;4900933;29;20434;-77
2023/08/01 04:59:23;;;;;;;4.13;3.73;;;;;;;18.04;100.00;99187.88;4914048;29;20473;-80
2023/08/01 05:01:52;;;;;;;4.03;3.63;;;;;;;18.04;100.00;99181.59;4916858;29;20426;-80
2023/08/01 05:04:21;;;;;;;6.47;4.53;;;;;;;18.02;100.00;99178.31;4909473;29;20471;-76
2023/08/01 05:06:50;;;;;;;5.77;5.20;;;;;;;18.16;100.00;99168.28;4907746;29;20526;-77
2023/08/01 05:09:19;;;;;;;4.83;4.33;;;;;;;18.16;100.00;99166.34;4904377;29;20533;-77
2023/08/01 05:11:48;;;;;;;4.33;3.77;;;;;;;18.19;100.00;99170.44;4915394;29;20408;-77
2023/08/01 05:14:19;;;;;;;4.87;4.37;;;;;;;18.24;100.00;99165.72;4903049;29;20880;-79
2023/08/01 05:16:48;;;;;;;7.53;4.33;;;;;;;18.33;100.00;99171.34;4922196;29;20442;-80
2023/08/01 05:19:17;;;;;;;5.20;3.90;;;;;;;18.28;100.00;99160.47;4924794;29;20446;-80
2023/08/01 05:21:46;;;;;;;3.47;3.17;;;;;;;18.32;100.00;99158.75;4933941;29;20496;-78
2023/08/01 05:24:15;;;;;;;3.83;3.53;;;;;;;18.45;100.00;99154.47;4923217;29;20478;-83
2023/08/01 05:26:44;;;;;;;5.27;4.40;;;;;;;18.34;100.00;99148.34;4913014;29;20420;-77
2023/08/01 05:29:13;;;;;;;4.03;3.60;;;;;;;18.46;100.00;99151.44;4910083;29;20525;-77
2023/08/01 05:31:43;;;;;;;7.03;4.30;;;;;;;18.50;100.00;99151.66;4897313;29;20479;-77
2023/08/01 05:34:12;;;;;;;8.10;4.00;;;;;;;18.51;100.00;99154.09;4899715;29;20513;-78
2023/08/01 05:36:41;;;;;;;6.17;3.60;;;;;;;18.63;100.00;99143.56;4906984;29;20430;-79
2023/08/01 05:39:11;;;;;;;6.10;4.03;;;;;;;18.74;100.00;99146.94;4905468;29;20434;-79
2023/08/01 05:41:40;;;;;;;5.60;4.10;;;;;;;18.74;100.00;99146.13;4912951;29;20479;-79
2023/08/01 05:44:09;;;;;;;4.50;3.90;;;;;;;18.64;100.00;99138.88;4907903;29;20828;-77
2023/08/01 05:46:38;;;;;;;4.33;3.80;;;;;;;18.66;100.00;99140.22;4900806;29;20413;-77
2023/08/01 05:49:09;;;;;;;5.00;4.50;;;;;;;18.74;100.00;99137.91;4913393;29;20979;-78
2023/08/01 05:51:38;;;;;;;5.60;4.07;;;;;;;18.63;100.00;99140.00;4895469;29;20437;-79
2023/08/01 05:54:07;;;;;;;6.93;4.23;;;;;;;18.66;100.00;99134.75;4906007;29;20458;-79
2023/08/01 05:56:36;;;;;;;10.00;3.97;;;;;;;18.63;100.00;99129.88;4905030;29;20448;-78
2023/08/01 05:59:06;;;;;;;4.67;4.00;;;;;;;18.71;100.00;99133.03;4907332;29;20508;-78
2023/08/01 06:01:36;;;;;;;5.00;4.23;;;;;;;18.60;100.00;99130.44;4908663;29;20447;-79
2023/08/01 06:04:05;;;;;;;9.17;4.50;;;;;;;18.65;100.00;99133.09;4907126;29;20940;-78
2023/08/01 06:06:36;;;;;;;8.97;4.13;;;;;;;18.75;100.00;99139.53;4905303;29;20904;-77
2023/08/01 06:09:05;;;;;;;7.47;4.80;;;;;;;18.79;100.00;99140.56;4905940;29;20448;-78
2023/08/01 06:11:34;;;;;;;4.83;4.10;;;;;;;18.90;100.00;99140.13;4902952;29;20413;-79
2023/08/01 06:14:04;;;;;;;5.67;4.23;;;;;;;18.87;100.00;99140.72;4902653;29;20441;-78
2023/08/01 06:16:33;;;;;;;6.13;3.83;;;;;;;18.88;100.00;99141.53;4908176;29;20477;-77
2023/08/01 06:19:02;;;;;;;7.23;5.37;;;;;;;18.95;100.00;99139.22;4915873;29;20400;-78
2023/08/01 06:21:32;;;;;;;3.80;3.40;;;;;;;18.96;100.00;99130.69;4911468;29;20424;-78
2023/08/01 06:24:02;;;;;;;5.57;5.07;;;;;;;18.93;100.00;99142.25;4915343;29;20429;-78
2023/08/01 06:26:31;;;;;;;5.63;4.00;;;;;;;18.95;100.00;99139.22;4926263;29;20486;-80
2023/08/01 06:29:00;;;;;;;6.73;4.20;;;;;;;18.88;100.00;99136.06;4921237;29;20458;-82
2023/08/01 06:31:29;;;;;;;5.73;4.30;;;;;;;18.84;100.00;99129.53;4924924;29;20434;-81
2023/08/01 06:33:58;;;;;;;5.93;4.83;;;;;;;18.96;100.00;99130.69;4928910;29;20465;-81
2023/08/01 06:36:27;;;;;;;5.90;3.33;;;;;;;19.16;100.00;99135.03;4925988;29;20417;-78
2023/08/01 06:38:56;;;;;;;6.43;4.53;;;;;;;19.17;100.00;99128.41;4927652;29;20393;-80
2023/08/01 06:41:27;;;;;;;5.53;3.63;;;;;;;19.22;100.00;99125.56;4921840;29;20455;-83
2023/08/01 06:43:58;;;;;;;5.70;3.30;;;;;;;19.16;100.00;99132.28;4932603;29;20476;-81
2023/08/01 06:46:27;;;;;;;6.00;4.07;;;;;;;19.12;100.00;99123.03;4917633;29;20443;-81
2023/08/01 06:48:56;;;;;;;6.47;4.60;;;;;;;19.05;100.00;99137.13;4917984;29;20495;-82
2023/08/01 06:51:25;;;;;;;7.23;5.53;;;;;;;19.19;100.00;99128.13;4924665;29;20449;-77
2023/08/01 06:53:54;;;;;;;6.33;3.40;;;;;;;19.17;100.00;99122.91;4909473;29;20501;-78
2023/08/01 06:56:23;;;;;;;4.53;3.60;;;;;;;19.17;100.00;99116.66;4900832;29;20418;-79
2023/08/01 06:58:53;;;;;;;5.30;3.80;;;;;;;19.24;99.66;99119.78;4905390;29;20500;-78
2023/08/01 07:01:22;;;;;;;5.17;3.93;;;;;;;19.24;99.68;99123.34;4901771;29;20450;-78
2023/08/01 07:03:52;;;;;;;5.37;3.40;;;;;;;19.42;98.95;99125.22;4900429;29;20436;-80
2023/08/01 07:06:21;;;;;;;4.60;3.80;;;;;;;19.33;99.06;99127.03;4913083;29;21022;-78
2023/08/01 07:08:50;;;;;;;5.87;4.10;;;;;;;19.38;98.88;99124.19;4906458;29;20465;-79
2023/08/01 07:11:20;;;;;;;4.73;3.57;;;;;;;19.50;97.36;99126.47;4911733;29;20453;-78
2023/08/01 07:13:49;;;;;;;5.07;3.60;;;;;;;19.47;97.13;99119.66;4903379;29;20463;-78
2023/08/01 07:16:19;;;;;;;4.50;3.40;;;;;;;19.61;97.50;99116.91;4901176;29;20447;-78
2023/08/01 07:18:50;;;;;;;4.90;3.40;;;;;;;19.87;95.12;99120.78;4913957;29;20413;-78
2023/08/01 07:21:19;;;;;;;5.37;4.20;;;;;;;19.92;95.55;99122.63;4913601;29;20922;-78
2023/08/01 07:23:48;;;;;;;5.27;3.37;;;;;;;20.20;93.35;99124.22;4915599;29;20445;-77
2023/08/01 07:26:17;;;;;;;4.83;3.60;;;;;;;20.34;91.27;99125.03;4904734;29;20444;-78
2023/08/01 07:28:46;;;;;;;4.23;3.40;;;;;;;20.52;90.86;99119.69;4903342;29;20441;-79
2023/08/01 07:31:15;;;;;;;4.80;3.40;;;;;;;20.47;89.92;99117.06;4910014;29;20421;-78
2023/08/01 07:33:45;;;;;;;3.90;3.27;;;;;;;20.72;88.44;99102.72;4924957;29;20436;-81
2023/08/01 07:36:14;;;;;;;4.77;3.07;;;;;;;20.89;88.02;99099.28;4920149;29;20462;-78
2023/08/01 07:38:43;;;;;;;5.57;2.90;;;;;;;21.23;85.40;99085.78;4915884;29;20445;-78
2023/08/01 07:41:12;;;;;;;4.70;3.43;;;;;;;21.37;84.20;99082.91;4908336;29;20420;-79
2023/08/01 07:43:41;;;;;;;3.57;2.60;;;;;;;21.73;81.60;99094.56;4906279;29;20911;-78
2023/08/01 07:46:11;;;;;;;5.87;3.53;;;;;;;21.77;80.38;99100.25;4899707;29;20549;-78
2023/08/01 07:48:40;;;;;;;4.70;3.27;;;;;;;21.85;80.86;99100.25;4917761;29;20465;-79
2023/08/01 07:51:11;;;;;;;4.60;3.23;;;;;;;21.83;80.32;99094.28;4912106;29;20442;-78
2023/08/01 07:53:40;;;;;;;4.07;3.20;;;;;;;21.89;80.75;99081.16;4918800;29;20458;-80
2023/08/01 07:56:09;;;;;;;6.40;2.90;;;;;;;21.92;79.67;99084.09;4918324;29;20422;-80
2023/08/01 07:58:38;;;;;;;5.70;3.87;;;;;;;22.09;79.20;99097.09;4912016;29;20466;-79
2023/08/01 08:01:07;;;;;;;4.13;3.20;;;;;;;22.20;78.58;99092.94;4913986;29;20462;-80
2023/08/01 08:03:37;;;;;;;4.37;3.53;;;;;;;22.56;76.39;99100.88;4920542;29;20458;-78
2023/08/01 08:06:06;;;;;;;4.63;3.00;;;;;;;22.48;77.62;99104.44;4917903;29;20605;-79
2023/08/01 08:08:37;;;;;;;7.03;3.50;;;;;;;22.51;77.96;99107.38;4920427;29;20485;-78
2023/08/01 08:11:05;;;;;;;3.03;2.53;;;;;;;22.77;76.34;99104.63;4916342;29;20708;-79
2023/08/01 08:13:34;;;;;;;4.80;3.27;;;;;;;22.70;75.33;99107.09;4923906;29;20461;-80
2023/08/01 08:16:04;;;;;;;5.50;2.80;;;;;;;22.61;75.23;99113.72;4924125;29;20457;-78
2023/08/01 08:18:33;;;;;;;3.13;2.53;;;;;;;22.58;75.83;99114.34;4915853;29;20432;-78
2023/08/01 08:21:02;;;;;;;4.60;2.87;;;;;;;22.87;74.26;99112.59;4924723;29;20423;-79
2023/08/01 08:23:31;;;;;;;4.97;3.13;;;;;;;22.43;75.07;99118.38;4911294;29;20439;-78
2023/08/01 08:26:01;;;;;;;3.50;3.20;;;;;;;22.31;76.48;99116.28;4913297;29;20438;-77
2023/08/01 08:28:32;;;;;;;6.70;3.67;;;;;;;22.05;78.31;99107.97;4914181;29;20493;-78
2023/08/01 08:31:03;;;;;;;4.70;3.23;;;;;;;21.93;79.69;99106.94;4914046;29;20661;-78
2023/08/01 08:33:32;;;;;;;3.27;2.77;;;;;;;21.89;79.36;99109.50;4904912;29;20522;-79
2023/08/01 08:36:01;;;;;;;4.00;3.53;;;;;;;21.89;79.25;99111.44;4905647;29;20413;-78
2023/08/01 08:38:30;;;;;;;5.03;3.40;;;;;;;22.36;76.47;99104.28;4905361;29;20788;-77
2023/08/01 08:41:09;;;;;;;4.57;2.80;;;;;;;22.39;76.36;99100.88;4911072;29;20405;-78
2023/08/01 08:43:38;;;;;;;4.63;3.10;;;;;;;22.76;76.34;99100.25;4900057;29;20453;-77
2023/08/01 08:46:09;;;;;;;3.73;2.77;;;;;;;23.21;73.07;99108.94;4904482;29;20417;-79
2023/08/01 08:48:40;;;;;;;3.50;2.57;;;;;;;23.74;70.87;99104.88;4899223;29;20413;-79
2023/08/01 08:51:10;;;;;;;4.40;3.30;;;;;;;23.73;70.24;99095.78;4896403;29;20470;-76
2023/08/01 08:53:41;;;;;;;4.00;3.23;;;;;;;23.77;69.49;99096.75;4905340;29;20469;-78
2023/08/01 08:56:12;;;;;;;6.10;2.70;;;;;;;23.78;70.48;99090.09;4897013;29;20441;-78
2023/08/01 08:58:42;;;;;;;3.30;2.93;;;;;;;23.52;70.67;99088.59;4898996;29;20473;-78
2023/08/01 09:01:11;;;;;;;6.03;3.00;;;;;;;23.30;70.60;99095.94;4900987;29;20441;-78
2023/08/01 09:03:40;;;;;;;3.37;2.47;;;;;;;22.79;72.03;99099.63;4904445;29;20482;-78
2023/08/01 09:06:14;;;;;;;5.77;5.17;;;;;;;22.66;73.31;99095.03;4903757;29;20430;-79
2023/08/01 09:08:51;;;;;;;4.20;3.07;;;;;;;23.10;72.81;99088.34;4910081;29;20485;-78
2023/08/01 09:11:21;;;;;;;3.60;2.50;;;;;;;23.25;71.15;99081.50;4906269;29;20439;-77
2023/08/01 09:13:51;;;;;;;3.67;2.27;;;;;;;23.50;69.58;99069.59;4906244;29;20470;-78
2023/08/01 09:16:20;;;;;;;4.17;3.07;;;;;;;23.83;67.68;99062.28;4906427;29;20417;-77
2023/08/01 09:18:51;;;;;;;4.10;2.60;;;;;;;24.27;66.60;99068.34;4909683;29;20512;-77
2023/08/01 09:21:20;;;;;;;12.00;3.50;;;;;;;24.56;64.72;99073.81;4900464;29;20434;-78
2023/08/01 09:23:50;;;;;;;3.50;2.57;;;;;;;24.72;63.75;99070.44;4904783;29;20530;-77
2023/08/01 09:26:22;;;;;;;3.83;2.33;;;;;;;24.96;62.38;99070.56;4905500;29;20457;-82
2023/08/01 09:28:57;;;;;;;2.87;2.30;;;;;;;24.88;62.45;99072.28;4902491;29;20469;-78
2023/08/01 09:31:30;;;;;;;3.87;2.10;;;;;;;24.74;61.84;99070.91;4909218;29;20442;-78
2023/08/01 09:34:00;;;;;;;2.73;1.40;;;;;;;23.82;62.45;99070.88;4910909;29;20455;-77
2023/08/01 09:36:29;;;;;;;2.67;1.10;;;;;;;23.04;63.75;99066.81;4910798;29;20442;-77
2023/08/01 09:39:02;;;;;;;2.70;1.37;;;;;;;22.79;66.33;99071.22;4907632;29;20434;-77
2023/08/01 09:41:33;;;;;;;2.00;1.37;;;;;;;22.94;67.08;99067.97;4907888;29;20486;-79
2023/08/01 09:44:03;;;;;;;4.30;1.70;;;;;;;22.95;67.63;99092.44;4911718;29;20504;-80
2023/08/01 09:46:32;;;;;;;1.93;1.30;;;;;;;22.57;70.11;99079.63;4911594;29;20859;-81
2023/08/01 09:49:09;;;;;;;2.50;1.23;;;;;;;22.51;72.00;99084.53;4911028;29;20981;-81
2023/08/01 09:51:49;;;;;;;2.57;1.97;;;;;;;22.43;73.29;99082.56;4913547;29;20458;-77
2023/08/01 09:54:18;;;;;;;2.80;1.83;;;;;;;22.32;73.77;99086.75;4922948;29;20441;-77
2023/08/01 09:56:50;;;;;;;1.60;1.30;;;;;;;22.22;74.27;99081.59;4922044;29;20418;-77
2023/08/01 09:59:22;;;;;;;2.57;1.80;;;;;;;22.32;73.52;99076.56;4923288;29;20437;-79
2023/08/01 10:01:52;;;;;;;2.00;1.53;;;;;;;22.56;72.45;99080.78;4914006;29;20438;-81
2023/08/01 10:04:24;;;;;;;3.03;1.50;;;;;;;22.51;72.15;99071.53;4907887;29;20474;-79
2023/08/01 10:06:59;;;;;;;1.70;1.40;;;;;;;22.47;72.62;99080.78;4916407;29;20521;-79
2023/08/01 10:09:31;;;;;;;6.40;1.77;;;;;;;22.34;73.57;99076.25;4913248;29;20411;-80
2023/08/01 10:12:02;;;;;;;3.70;1.70;;;;;;;21.99;74.51;99073.44;4907808;29;20761;-80
2023/08/01 10:14:33;;;;;;;1.90;1.50;;;;;;;21.93;74.42;99069.19;4909683;29;20909;-81
2023/08/01 10:17:04;;;;;;;3.53;2.43;;;;;;;21.83;75.46;99066.75;4919888;29;20453;-78
2023/08/01 10:19:34;;;;;;;2.67;1.70;;;;;;;21.68;75.45;99078.19;4900958;29;20440;-77
2023/08/01 10:22:03;;;;;;;2.07;1.60;;;;;;;21.38;76.36;99076.28;4912056;29;20540;-80
2023/08/01 10:24:34;;;;;;;1.47;1.20;;;;;;;21.30;76.97;99068.81;4918562;29;20453;-79
2023/08/01 10:27:14;;;;;;;1.70;1.30;;;;;;;21.35;79.32;99071.44;4909520;29;20453;-78
2023/08/01 10:29:44;;;;;;;4.37;2.10;;;;;;;21.21;80.33;99066.81;4916887;29;20436;-79
2023/08/01 10:32:13;;;;;;;1.90;1.37;;;;;;;21.31;81.52;99064.91;4923926;29;20412;-77
2023/08/01 10:34:52;;;;;;;1.60;1.00;;;;;;;21.12;82.80;99076.94;4928188;29;20478;-79
2023/08/01 10:37:21;;;;;;;3.40;2.47;;;;;;;20.70;85.05;99071.97;4921952;29;20429;-77
2023/08/01 10:39:59;;;;;;;3.30;1.60;;;;;;;20.42;89.19;99087.78;4926990;29;20445;-77
2023/08/01 10:42:40;;;;;;;2.07;1.60;;;;;;;19.74;95.74;99087.88;4920934;29;20425;-79
2023/08/01 10:45:21;;;;;;;4.00;1.63;;;;;;;19.56;100.00;99110.75;4923017;29;20413;-77
2023/08/01 10:47:51;;;;;;;6.00;4.70;;;;;;;19.24;100.00;99101.41;4933232;29;20468;-77
2023/08/01 10:50:20;;;;;;;1.97;1.53;;;;;;;19.13;100.00;99099.16;4927694;29;20424;-77
2023/08/01 10:52:51;;;;;;;3.50;2.00;;;;;;;19.27;100.00;99100.81;4921573;29;20457;-78
2023/08/01 10:55:20;;;;;;;1.77;1.20;;;;;;;19.13;100.00;99113.69;4925224;29;20432;-78
2023/08/01 10:57:53;;;;;;;4.00;1.50;;;;;;;19.15;100.00;99105.16;4932606;29;20737;-79
2023/08/01 11:00:22;;;;;;;1.70;1.33;;;;;;;19.12;100.00;99103.03;4908019;29;20420;-80
2023/08/01 11:02:51;;;;;;;4.80;2.30;;;;;;;19.18;100.00;99112.78;4903692;29;20818;-80
2023/08/01 11:05:28;;;;;;;4.00;1.20;;;;;;;19.08;100.00;99116.50;4914197;29;20496;-79
2023/08/01 11:07:58;;;;;;;2.70;1.77;;;;;;;19.24;100.00;99128.84;4911030;29;20401;-79
2023/08/01 11:10:28;;;;;;;3.40;1.40;;;;;;;19.35;100.00;99124.81;4910606;29;20449;-80
2023/08/01 11:12:59;;;;;;;2.23;1.53;;;;;;;19.41;100.00;99125.53;4919028;29;20531;-80
2023/08/01 11:15:28;;;;;;;1.57;1.20;;;;;;;19.32;100.00;99121.84;4930001;29;21004;-78
2023/08/01 11:17:58;;;;;;;4.63;1.50;;;;;;;19.59;100.00;99132.06;4928479;29;20488;-78
2023/08/01 11:20:28;;;;;;;2.70;1.40;;;;;;;20.07;99.33;99137.97;4927107;29;20434;-79
2023/08/01 11:23:00;;;;;;;3.17;1.90;;;;;;;20.00;95.26;99126.56;4909854;29;20447;-78
2023/08/01 11:25:34;;;;;;;3.03;2.37;;;;;;;19.99;94.29;99130.44;4917850;29;20389;-76
2023/08/01 11:28:07;;;;;;;3.50;2.17;;;;;;;19.74;92.28;99134.53;4929453;29;20416;-77
2023/08/01 11:30:37;;;;;;;2.80;2.20;;;;;;;19.97;94.02;99149.97;4921150;29;20609;-77
2023/08/01 11:33:15;;;;;;;4.40;2.60;;;;;;;20.42;90.25;99142.72;4914957;29;20466;-79
2023/08/01 11:35:44;;;;;;;4.83;3.50;;;;;;;21.14;88.02;99137.97;4909013;29;20452;-80
2023/08/01 11:38:14;;;;;;;2.60;2.40;;;;;;;21.44;83.54;99141.88;4909015;29;20635;-80
2023/08/01 11:40:43;;;;;;;5.10;3.20;;;;;;;21.68;83.21;99152.53;4910273;29;20895;-79
2023/08/01 11:43:13;;;;;;;4.53;3.13;;;;;;;21.74;83.73;99153.97;4924839;29;20463;-78
2023/08/01 11:45:51;;;;;;;4.10;3.70;;;;;;;21.39;80.46;99149.47;4924577;29;20426;-79